SWR5Z LSZH-LFPG
Flight info
| Callsign | SWR5Z |
|---|---|
| Flight time | 1h 9m |
| Altitude | 32000 |
| Route | DEGES Z1 ETAGO DCT KRH DCT BETEX DCT IDOSA UN857 TOLVU/N0399F330 DCT RAPOR DCT VEDUS |
| Aircraft | A20N/M-SDE2E3FGHIJ1RWXY/LB1 |
Departure
| Time | 2026-05-06 12:00 |
|---|---|
| Airport | Zürich Airport (LSZH) |
Arrival
| Time | 2026-05-06 13:09 |
|---|---|
| Airport | Charles de Gaulle International Airport (LFPG) |
| Time | Latitude | Longitude | Altitude | Speed | Heading |
|---|---|---|---|---|---|
| 2026-05-06 11:17 | 47.45177 | 8.55711 | 1406 ft | 0 kts | 186° |
| 2026-05-06 11:49 | 47.45185 | 8.55713 | 1406 ft | 4 kts | 186° |
| 2026-05-06 11:49 | 47.45212 | 8.55717 | 1406 ft | 4 kts | 186° |
| 2026-05-06 11:50 | 47.45238 | 8.55723 | 1409 ft | 4 kts | 200° |
| 2026-05-06 11:50 | 47.45260 | 8.55743 | 1411 ft | 4 kts | 246° |
| 2026-05-06 11:50 | 47.45263 | 8.55760 | 1408 ft | 1 kts | 275° |
| 2026-05-06 11:53 | 47.45264 | 8.55744 | 1406 ft | 4 kts | 275° |
| 2026-05-06 11:54 | 47.45269 | 8.55664 | 1406 ft | 10 kts | 275° |
| 2026-05-06 11:54 | 47.45293 | 8.55563 | 1409 ft | 11 kts | 321° |
| 2026-05-06 11:54 | 47.45368 | 8.55513 | 1410 ft | 12 kts | 335° |
| 2026-05-06 11:54 | 47.45459 | 8.55452 | 1411 ft | 16 kts | 335° |
| 2026-05-06 11:55 | 47.45526 | 8.55480 | 1408 ft | 11 kts | 73° |
| 2026-05-06 11:55 | 47.45520 | 8.55582 | 1406 ft | 10 kts | 97° |
| 2026-05-06 11:55 | 47.45512 | 8.55688 | 1407 ft | 12 kts | 96° |
| 2026-05-06 11:55 | 47.45504 | 8.55825 | 1407 ft | 14 kts | 95° |
| 2026-05-06 11:56 | 47.45493 | 8.55985 | 1410 ft | 17 kts | 96° |
| 2026-05-06 11:56 | 47.45481 | 8.56168 | 1407 ft | 19 kts | 94° |
| 2026-05-06 11:56 | 47.45531 | 8.56309 | 1414 ft | 12 kts | 51° |
| 2026-05-06 11:56 | 47.45585 | 8.56408 | 1415 ft | 13 kts | 52° |
| 2026-05-06 11:57 | 47.45591 | 8.56539 | 1415 ft | 13 kts | 96° |
| 2026-05-06 11:57 | 47.45581 | 8.56679 | 1418 ft | 14 kts | 96° |
| 2026-05-06 11:57 | 47.45570 | 8.56830 | 1420 ft | 16 kts | 96° |
| 2026-05-06 11:57 | 47.45564 | 8.56959 | 1420 ft | 10 kts | 80° |
| 2026-05-06 11:58 | 47.45572 | 8.56986 | 1421 ft | 0 kts | 57° |
| 2026-05-06 11:58 | 47.45577 | 8.56994 | 1421 ft | 4 kts | 50° |
| 2026-05-06 11:59 | 47.45623 | 8.57018 | 1424 ft | 9 kts | 358° |
| 2026-05-06 11:59 | 47.45667 | 8.56959 | 1424 ft | 10 kts | 284° |
| 2026-05-06 11:59 | 47.45678 | 8.56801 | 1420 ft | 36 kts | 276° |
| 2026-05-06 11:59 | 47.45730 | 8.56065 | 1411 ft | 104 kts | 276° |
| 2026-05-06 12:00 | 47.45823 | 8.54722 | 1458 ft | 148 kts | 277° |
| 2026-05-06 12:00 | 47.45907 | 8.53268 | 2187 ft | 137 kts | 275° |
| 2026-05-06 12:00 | 47.45994 | 8.51888 | 2975 ft | 132 kts | 273° |
| 2026-05-06 12:00 | 47.46051 | 8.50544 | 3673 ft | 129 kts | 271° |
| 2026-05-06 12:01 | 47.46108 | 8.49197 | 4271 ft | 137 kts | 274° |
| 2026-05-06 12:01 | 47.46170 | 8.47706 | 4749 ft | 156 kts | 255° |
| 2026-05-06 12:01 | 47.45504 | 8.46333 | 5267 ft | 179 kts | 223° |
| 2026-05-06 12:01 | 47.44458 | 8.45134 | 5876 ft | 200 kts | 225° |
| 2026-05-06 12:02 | 47.43659 | 8.43374 | 6531 ft | 214 kts | 250° |
| 2026-05-06 12:02 | 47.43264 | 8.41231 | 7442 ft | 218 kts | 255° |
| 2026-05-06 12:02 | 47.42946 | 8.39431 | 8350 ft | 219 kts | 255° |
| 2026-05-06 12:02 | 47.42449 | 8.37332 | 9284 ft | 222 kts | 237° |
| 2026-05-06 12:03 | 47.41304 | 8.35770 | 10070 ft | 229 kts | 206° |
| 2026-05-06 12:03 | 47.39735 | 8.35329 | 10888 ft | 236 kts | 176° |
| 2026-05-06 12:03 | 47.38178 | 8.36172 | 11731 ft | 244 kts | 146° |
| 2026-05-06 12:03 | 47.37085 | 8.38101 | 12567 ft | 252 kts | 117° |
| 2026-05-06 12:04 | 47.36752 | 8.40659 | 13399 ft | 261 kts | 88° |
| 2026-05-06 12:04 | 47.37300 | 8.43233 | 14126 ft | 269 kts | 59° |
| 2026-05-06 12:04 | 47.38630 | 8.45207 | 14772 ft | 277 kts | 32° |
| 2026-05-06 12:04 | 47.40339 | 8.46586 | 15427 ft | 282 kts | 30° |
| 2026-05-06 12:05 | 47.41977 | 8.48184 | 16110 ft | 284 kts | 40° |
| 2026-05-06 12:05 | 47.43281 | 8.49941 | 16721 ft | 287 kts | 48° |
| 2026-05-06 12:05 | 47.44562 | 8.52137 | 17408 ft | 290 kts | 54° |
| 2026-05-06 12:05 | 47.45777 | 8.54546 | 18091 ft | 294 kts | 57° |
| 2026-05-06 12:06 | 47.46789 | 8.57211 | 18420 ft | 305 kts | 76° |
| 2026-05-06 12:06 | 47.47038 | 8.60353 | 18643 ft | 315 kts | 98° |
| 2026-05-06 12:06 | 47.46769 | 8.63661 | 18837 ft | 336 kts | 101° |
| 2026-05-06 12:06 | 47.46506 | 8.67175 | 19036 ft | 359 kts | 98° |
| 2026-05-06 12:07 | 47.46405 | 8.70980 | 19239 ft | 381 kts | 94° |
| 2026-05-06 12:07 | 47.46455 | 8.74973 | 19644 ft | 393 kts | 91° |
| 2026-05-06 12:07 | 47.46579 | 8.79041 | 20325 ft | 396 kts | 92° |
| 2026-05-06 12:07 | 47.46486 | 8.83102 | 20996 ft | 396 kts | 99° |
| 2026-05-06 12:08 | 47.46032 | 8.87104 | 21638 ft | 397 kts | 106° |
| 2026-05-06 12:08 | 47.45433 | 8.91120 | 22262 ft | 401 kts | 105° |
| 2026-05-06 12:08 | 47.44978 | 8.95217 | 22882 ft | 409 kts | 96° |
| 2026-05-06 12:08 | 47.45222 | 8.99453 | 23475 ft | 419 kts | 79° |
| 2026-05-06 12:09 | 47.46227 | 9.03544 | 23923 ft | 430 kts | 64° |
| 2026-05-06 12:09 | 47.47934 | 9.07214 | 24305 ft | 439 kts | 49° |
| 2026-05-06 12:09 | 47.50252 | 9.10217 | 24681 ft | 447 kts | 34° |
| 2026-05-06 12:09 | 47.53026 | 9.12320 | 25146 ft | 452 kts | 19° |
| 2026-05-06 12:10 | 47.56093 | 9.13409 | 25600 ft | 455 kts | 4° |
| 2026-05-06 12:10 | 47.59252 | 9.13475 | 26078 ft | 456 kts | 354° |
| 2026-05-06 12:10 | 47.62449 | 9.13300 | 26540 ft | 463 kts | 357° |
| 2026-05-06 12:10 | 47.65691 | 9.13495 | 27001 ft | 468 kts | 2° |
| 2026-05-06 12:11 | 47.68939 | 9.14077 | 27378 ft | 474 kts | 6° |
| 2026-05-06 12:11 | 47.72215 | 9.14920 | 27784 ft | 479 kts | 8° |
| 2026-05-06 12:11 | 47.75505 | 9.15889 | 28166 ft | 484 kts | 9° |
| 2026-05-06 12:11 | 47.78821 | 9.16909 | 28547 ft | 488 kts | 9° |
| 2026-05-06 12:12 | 47.82160 | 9.17942 | 28921 ft | 492 kts | 9° |
| 2026-05-06 12:12 | 47.85528 | 9.18980 | 29270 ft | 496 kts | 9° |
| 2026-05-06 12:12 | 47.88919 | 9.20021 | 29627 ft | 499 kts | 9° |
| 2026-05-06 12:12 | 47.92332 | 9.21066 | 29964 ft | 503 kts | 9° |
| 2026-05-06 12:13 | 47.95772 | 9.22119 | 30322 ft | 505 kts | 9° |
| 2026-05-06 12:13 | 47.99223 | 9.23175 | 30676 ft | 507 kts | 9° |
| 2026-05-06 12:13 | 48.02636 | 9.24220 | 31048 ft | 509 kts | 9° |
| 2026-05-06 12:13 | 48.06119 | 9.25287 | 31506 ft | 508 kts | 9° |
| 2026-05-06 12:14 | 48.09572 | 9.26348 | 31768 ft | 506 kts | 9° |
| 2026-05-06 12:14 | 48.13018 | 9.27408 | 31813 ft | 504 kts | 9° |
| 2026-05-06 12:14 | 48.19884 | 9.29522 | 31808 ft | 503 kts | 9° |
| 2026-05-06 12:15 | 48.26752 | 9.31642 | 31808 ft | 502 kts | 9° |
| 2026-05-06 12:15 | 48.33590 | 9.33759 | 31808 ft | 502 kts | 9° |
| 2026-05-06 12:16 | 48.40427 | 9.35883 | 31797 ft | 501 kts | 9° |
| 2026-05-06 12:16 | 48.47210 | 9.37994 | 31789 ft | 500 kts | 9° |
| 2026-05-06 12:17 | 48.54020 | 9.40119 | 31782 ft | 499 kts | 9° |
| 2026-05-06 12:17 | 48.60812 | 9.42246 | 31781 ft | 498 kts | 9° |
| 2026-05-06 12:18 | 48.66550 | 9.42723 | 31774 ft | 488 kts | 349° |
| 2026-05-06 12:18 | 48.69831 | 9.41673 | 31772 ft | 481 kts | 336° |
| 2026-05-06 12:18 | 48.72864 | 9.39679 | 31774 ft | 471 kts | 324° |
| 2026-05-06 12:19 | 48.75512 | 9.36848 | 31769 ft | 461 kts | 312° |
| 2026-05-06 12:19 | 48.77659 | 9.33326 | 31767 ft | 451 kts | 300° |
| 2026-05-06 12:19 | 48.79229 | 9.29263 | 31767 ft | 440 kts | 288° |
| 2026-05-06 12:19 | 48.80231 | 9.24923 | 31760 ft | 435 kts | 281° |
| 2026-05-06 12:20 | 48.82103 | 9.16230 | 31759 ft | 438 kts | 285° |
| 2026-05-06 12:20 | 48.84478 | 9.07661 | 31765 ft | 442 kts | 289° |
| 2026-05-06 12:21 | 48.87031 | 8.99201 | 31791 ft | 446 kts | 289° |
| 2026-05-06 12:21 | 48.89655 | 8.90562 | 31795 ft | 446 kts | 290° |
| 2026-05-06 12:22 | 48.92243 | 8.81978 | 31801 ft | 447 kts | 290° |
| 2026-05-06 12:22 | 48.94824 | 8.73378 | 31799 ft | 447 kts | 290° |
| 2026-05-06 12:23 | 48.97405 | 8.64748 | 31786 ft | 448 kts | 290° |
| 2026-05-06 12:23 | 49.00134 | 8.56245 | 31809 ft | 452 kts | 297° |
| 2026-05-06 12:24 | 49.03421 | 8.47994 | 31811 ft | 453 kts | 297° |
| 2026-05-06 12:24 | 49.06673 | 8.39763 | 31800 ft | 454 kts | 297° |
| 2026-05-06 12:25 | 49.09923 | 8.31508 | 31817 ft | 454 kts | 297° |
| 2026-05-06 12:25 | 49.13170 | 8.23235 | 31797 ft | 454 kts | 297° |
| 2026-05-06 12:26 | 49.16415 | 8.14940 | 31801 ft | 455 kts | 297° |
| 2026-05-06 12:26 | 49.19655 | 8.06632 | 31797 ft | 455 kts | 297° |
| 2026-05-06 12:27 | 49.22896 | 7.98297 | 31789 ft | 455 kts | 297° |
| 2026-05-06 12:27 | 49.26136 | 7.89938 | 31790 ft | 456 kts | 297° |
| 2026-05-06 12:28 | 49.29363 | 7.81586 | 31785 ft | 456 kts | 297° |
| 2026-05-06 12:28 | 49.32585 | 7.73219 | 31789 ft | 456 kts | 297° |
| 2026-05-06 12:29 | 49.35791 | 7.64866 | 31788 ft | 457 kts | 297° |
| 2026-05-06 12:29 | 49.39016 | 7.56440 | 31789 ft | 458 kts | 297° |
| 2026-05-06 12:30 | 49.42237 | 7.47995 | 31792 ft | 458 kts | 296° |
| 2026-05-06 12:30 | 49.45455 | 7.39530 | 31793 ft | 458 kts | 296° |
| 2026-05-06 12:31 | 49.48667 | 7.31053 | 31797 ft | 458 kts | 296° |
| 2026-05-06 12:31 | 49.51869 | 7.22575 | 31797 ft | 458 kts | 296° |
| 2026-05-06 12:32 | 49.55063 | 7.14092 | 31798 ft | 457 kts | 296° |
| 2026-05-06 12:32 | 49.58245 | 7.05610 | 31798 ft | 457 kts | 296° |
| 2026-05-06 12:33 | 49.61395 | 6.97189 | 31792 ft | 456 kts | 296° |
| 2026-05-06 12:33 | 49.64553 | 6.88714 | 31786 ft | 455 kts | 296° |
| 2026-05-06 12:34 | 49.67698 | 6.80250 | 31783 ft | 454 kts | 296° |
| 2026-05-06 12:34 | 49.70828 | 6.71800 | 31782 ft | 452 kts | 296° |
| 2026-05-06 12:35 | 49.73946 | 6.63353 | 31789 ft | 451 kts | 296° |
| 2026-05-06 12:35 | 49.77047 | 6.54924 | 31784 ft | 450 kts | 296° |
| 2026-05-06 12:36 | 49.79877 | 6.46402 | 31776 ft | 445 kts | 286° |
| 2026-05-06 12:36 | 49.80594 | 6.41764 | 31771 ft | 441 kts | 275° |
| 2026-05-06 12:36 | 49.80712 | 6.37049 | 31785 ft | 437 kts | 264° |
| 2026-05-06 12:37 | 49.79635 | 6.27821 | 31808 ft | 438 kts | 256° |
| 2026-05-06 12:37 | 49.78410 | 6.18573 | 31811 ft | 439 kts | 256° |
| 2026-05-06 12:38 | 49.77178 | 6.09315 | 31801 ft | 439 kts | 256° |
| 2026-05-06 12:38 | 49.75934 | 6.00057 | 31816 ft | 439 kts | 256° |
| 2026-05-06 12:39 | 49.74664 | 5.90672 | 31812 ft | 440 kts | 256° |
| 2026-05-06 12:39 | 49.72930 | 5.81633 | 31800 ft | 438 kts | 249° |
| 2026-05-06 12:40 | 49.70867 | 5.72786 | 31802 ft | 437 kts | 249° |
| 2026-05-06 12:40 | 49.68806 | 5.63927 | 31803 ft | 437 kts | 249° |
| 2026-05-06 12:41 | 49.66731 | 5.55049 | 31831 ft | 441 kts | 249° |
| 2026-05-06 12:41 | 49.64648 | 5.46182 | 31841 ft | 441 kts | 249° |
| 2026-05-06 12:42 | 49.62547 | 5.37271 | 31836 ft | 443 kts | 249° |
| 2026-05-06 12:42 | 49.61523 | 5.32766 | 31680 ft | 443 kts | 250° |
| 2026-05-06 12:42 | 49.60567 | 5.28257 | 31425 ft | 443 kts | 251° |
| 2026-05-06 12:43 | 49.59763 | 5.23662 | 31181 ft | 444 kts | 257° |
| 2026-05-06 12:43 | 49.59291 | 5.18949 | 30752 ft | 447 kts | 263° |
| 2026-05-06 12:43 | 49.59156 | 5.14138 | 29972 ft | 451 kts | 270° |
| 2026-05-06 12:43 | 49.59225 | 5.09326 | 29370 ft | 445 kts | 270° |
| 2026-05-06 12:44 | 49.59281 | 5.04598 | 28782 ft | 438 kts | 270° |
| 2026-05-06 12:44 | 49.59324 | 4.99933 | 28200 ft | 431 kts | 269° |
| 2026-05-06 12:44 | 49.59361 | 4.95350 | 27630 ft | 425 kts | 269° |
| 2026-05-06 12:44 | 49.59394 | 4.90827 | 27069 ft | 419 kts | 269° |
| 2026-05-06 12:45 | 49.59425 | 4.86366 | 26515 ft | 413 kts | 269° |
| 2026-05-06 12:45 | 49.59453 | 4.81968 | 25961 ft | 408 kts | 269° |
| 2026-05-06 12:45 | 49.59501 | 4.73478 | 25348 ft | 392 kts | 269° |
| 2026-05-06 12:46 | 49.59522 | 4.69255 | 24913 ft | 396 kts | 269° |
| 2026-05-06 12:46 | 49.59542 | 4.64998 | 24456 ft | 396 kts | 269° |
| 2026-05-06 12:46 | 49.59560 | 4.60776 | 24003 ft | 392 kts | 269° |
| 2026-05-06 12:46 | 49.59577 | 4.56600 | 23560 ft | 386 kts | 269° |
| 2026-05-06 12:47 | 49.59592 | 4.52497 | 23083 ft | 380 kts | 269° |
| 2026-05-06 12:47 | 49.59606 | 4.48439 | 22649 ft | 378 kts | 269° |
| 2026-05-06 12:47 | 49.59619 | 4.44382 | 22215 ft | 378 kts | 269° |
| 2026-05-06 12:47 | 49.59630 | 4.40328 | 21786 ft | 377 kts | 269° |
| 2026-05-06 12:48 | 49.59639 | 4.36294 | 21351 ft | 373 kts | 269° |
| 2026-05-06 12:48 | 49.59648 | 4.32313 | 20930 ft | 369 kts | 269° |
| 2026-05-06 12:48 | 49.59655 | 4.28356 | 20509 ft | 368 kts | 269° |
| 2026-05-06 12:48 | 49.59661 | 4.24411 | 20085 ft | 367 kts | 269° |
| 2026-05-06 12:49 | 49.59665 | 4.20503 | 19665 ft | 364 kts | 269° |
| 2026-05-06 12:49 | 49.59668 | 4.16671 | 19260 ft | 361 kts | 269° |
| 2026-05-06 12:49 | 49.59669 | 4.12746 | 18842 ft | 361 kts | 269° |
| 2026-05-06 12:49 | 49.59531 | 4.08963 | 18432 ft | 356 kts | 259° |
| 2026-05-06 12:50 | 49.58871 | 4.05327 | 18012 ft | 349 kts | 246° |
| 2026-05-06 12:50 | 49.57720 | 4.02057 | 17600 ft | 347 kts | 236° |
| 2026-05-06 12:50 | 49.56383 | 3.98922 | 17196 ft | 350 kts | 237° |
| 2026-05-06 12:50 | 49.55075 | 3.95825 | 16804 ft | 347 kts | 237° |
| 2026-05-06 12:51 | 49.53752 | 3.92682 | 16410 ft | 344 kts | 237° |
| 2026-05-06 12:51 | 49.52468 | 3.89635 | 16020 ft | 343 kts | 237° |
| 2026-05-06 12:51 | 49.51184 | 3.86592 | 15873 ft | 332 kts | 237° |
| 2026-05-06 12:51 | 49.49950 | 3.83672 | 15748 ft | 319 kts | 237° |
| 2026-05-06 12:52 | 49.48757 | 3.80853 | 15519 ft | 311 kts | 237° |
| 2026-05-06 12:52 | 49.47690 | 3.77971 | 15137 ft | 308 kts | 246° |
| 2026-05-06 12:52 | 49.46953 | 3.74885 | 14737 ft | 307 kts | 255° |
| 2026-05-06 12:52 | 49.46609 | 3.72779 | 14514 ft | 306 kts | 257° |
| 2026-05-06 12:53 | 49.46088 | 3.69605 | 14120 ft | 306 kts | 256° |
| 2026-05-06 12:53 | 49.45389 | 3.65442 | 13346 ft | 313 kts | 257° |
| 2026-05-06 12:53 | 49.44824 | 3.62096 | 12768 ft | 315 kts | 256° |
| 2026-05-06 12:53 | 49.44456 | 3.59927 | 12666 ft | 307 kts | 256° |
| 2026-05-06 12:54 | 49.43943 | 3.56914 | 12413 ft | 298 kts | 256° |
| 2026-05-06 12:54 | 49.43421 | 3.53844 | 11968 ft | 294 kts | 256° |
| 2026-05-06 12:54 | 49.42917 | 3.50874 | 11701 ft | 289 kts | 256° |
| 2026-05-06 12:54 | 49.42398 | 3.47888 | 11424 ft | 291 kts | 253° |
| 2026-05-06 12:55 | 49.41421 | 3.45168 | 11138 ft | 294 kts | 229° |
| 2026-05-06 12:55 | 49.39810 | 3.43247 | 10853 ft | 295 kts | 211° |
| 2026-05-06 12:55 | 49.38029 | 3.41714 | 10567 ft | 293 kts | 210° |
| 2026-05-06 12:55 | 49.36248 | 3.40190 | 10282 ft | 289 kts | 210° |
| 2026-05-06 12:56 | 49.34501 | 3.38691 | 10002 ft | 289 kts | 210° |
| 2026-05-06 12:56 | 49.32753 | 3.37185 | 9713 ft | 287 kts | 210° |
| 2026-05-06 12:56 | 49.31012 | 3.35683 | 9426 ft | 287 kts | 210° |
| 2026-05-06 12:56 | 49.29271 | 3.34181 | 9141 ft | 286 kts | 210° |
| 2026-05-06 12:57 | 49.27576 | 3.32591 | 8863 ft | 286 kts | 217° |
| 2026-05-06 12:57 | 49.26107 | 3.30617 | 8590 ft | 284 kts | 226° |
| 2026-05-06 12:57 | 49.24718 | 3.28465 | 8312 ft | 284 kts | 226° |
| 2026-05-06 12:57 | 49.23320 | 3.26325 | 8033 ft | 284 kts | 226° |
| 2026-05-06 12:58 | 49.21917 | 3.24191 | 7658 ft | 285 kts | 226° |
| 2026-05-06 12:58 | 49.20508 | 3.22052 | 7285 ft | 284 kts | 226° |
| 2026-05-06 12:58 | 49.19119 | 3.19949 | 6988 ft | 279 kts | 226° |
| 2026-05-06 12:58 | 49.17746 | 3.17871 | 6682 ft | 274 kts | 226° |
| 2026-05-06 12:59 | 49.16416 | 3.15860 | 6386 ft | 264 kts | 226° |
| 2026-05-06 12:59 | 49.15133 | 3.13921 | 6071 ft | 256 kts | 227° |
| 2026-05-06 12:59 | 49.13887 | 3.12039 | 5745 ft | 248 kts | 227° |
| 2026-05-06 12:59 | 49.12669 | 3.10198 | 5360 ft | 244 kts | 227° |
| 2026-05-06 13:00 | 49.11464 | 3.08376 | 5066 ft | 244 kts | 227° |
| 2026-05-06 13:00 | 49.10263 | 3.06563 | 4987 ft | 243 kts | 227° |
| 2026-05-06 13:00 | 49.09056 | 3.04741 | 4991 ft | 245 kts | 226° |
| 2026-05-06 13:00 | 49.07845 | 3.02918 | 4989 ft | 245 kts | 227° |
| 2026-05-06 13:01 | 49.06635 | 3.01097 | 4989 ft | 244 kts | 227° |
| 2026-05-06 13:01 | 49.05619 | 2.99128 | 4985 ft | 227 kts | 245° |
| 2026-05-06 13:01 | 49.05102 | 2.96998 | 4943 ft | 206 kts | 260° |
| 2026-05-06 13:01 | 49.04868 | 2.94947 | 4823 ft | 188 kts | 267° |
| 2026-05-06 13:02 | 49.04764 | 2.93469 | 4762 ft | 170 kts | 269° |
| 2026-05-06 13:02 | 49.04665 | 2.91822 | 4643 ft | 152 kts | 270° |
| 2026-05-06 13:02 | 49.04576 | 2.90295 | 4505 ft | 139 kts | 270° |
| 2026-05-06 13:02 | 49.04497 | 2.88870 | 4436 ft | 138 kts | 271° |
| 2026-05-06 13:03 | 49.04416 | 2.87400 | 4362 ft | 137 kts | 270° |
| 2026-05-06 13:03 | 49.04335 | 2.85996 | 4217 ft | 136 kts | 270° |
| 2026-05-06 13:03 | 49.04253 | 2.84556 | 4065 ft | 136 kts | 271° |
| 2026-05-06 13:03 | 49.04171 | 2.83107 | 3907 ft | 137 kts | 271° |
| 2026-05-06 13:04 | 49.04089 | 2.81680 | 3729 ft | 134 kts | 271° |
| 2026-05-06 13:04 | 49.04011 | 2.80284 | 3565 ft | 135 kts | 271° |
| 2026-05-06 13:04 | 49.03930 | 2.78858 | 3392 ft | 135 kts | 271° |
| 2026-05-06 13:04 | 49.03849 | 2.77422 | 3211 ft | 134 kts | 271° |
| 2026-05-06 13:05 | 49.03771 | 2.76032 | 3030 ft | 132 kts | 271° |
| 2026-05-06 13:05 | 49.03691 | 2.74615 | 2858 ft | 133 kts | 271° |
| 2026-05-06 13:05 | 49.03613 | 2.73224 | 2670 ft | 131 kts | 270° |
| 2026-05-06 13:05 | 49.03538 | 2.71857 | 2501 ft | 132 kts | 270° |
| 2026-05-06 13:06 | 49.03460 | 2.70466 | 2320 ft | 132 kts | 270° |
| 2026-05-06 13:06 | 49.03383 | 2.69103 | 2135 ft | 127 kts | 271° |
| 2026-05-06 13:06 | 49.03308 | 2.67726 | 1967 ft | 131 kts | 270° |
| 2026-05-06 13:06 | 49.03227 | 2.66378 | 1789 ft | 130 kts | 269° |
| 2026-05-06 13:07 | 49.03152 | 2.65379 | 1656 ft | 129 kts | 268° |
| 2026-05-06 13:07 | 49.03052 | 2.64122 | 1486 ft | 129 kts | 268° |
| 2026-05-06 13:07 | 49.02937 | 2.62759 | 1329 ft | 129 kts | 268° |
| 2026-05-06 13:07 | 49.02847 | 2.61398 | 1148 ft | 129 kts | 270° |
| 2026-05-06 13:08 | 49.02798 | 2.60055 | 946 ft | 126 kts | 271° |
| 2026-05-06 13:08 | 49.02755 | 2.58710 | 748 ft | 126 kts | 272° |
| 2026-05-06 13:08 | 49.02719 | 2.57391 | 541 ft | 123 kts | 269° |
| 2026-05-06 13:08 | 49.02659 | 2.56080 | 408 ft | 126 kts | 267° |
| 2026-05-06 13:09 | 49.02603 | 2.54823 | 358 ft | 104 kts | 265° |
| 2026-05-06 13:09 | 49.02560 | 2.53977 | 357 ft | 58 kts | 261° |
| 2026-05-06 13:09 | 49.02526 | 2.53588 | 356 ft | 11 kts | 253° |
| 2026-05-06 13:09 | 49.02491 | 2.53451 | 358 ft | 17 kts | 248° |
| 2026-05-06 13:10 | 49.02431 | 2.53302 | 354 ft | 13 kts | 235° |
| 2026-05-06 13:10 | 49.02389 | 2.53211 | 360 ft | 12 kts | 236° |
| 2026-05-06 13:10 | 49.02333 | 2.53090 | 360 ft | 14 kts | 229° |
| 2026-05-06 13:10 | 49.02251 | 2.53007 | 360 ft | 16 kts | 195° |
| 2026-05-06 13:11 | 49.02127 | 2.53011 | 358 ft | 19 kts | 175° |
| 2026-05-06 13:11 | 49.01989 | 2.53030 | 354 ft | 19 kts | 176° |
| 2026-05-06 13:11 | 49.01855 | 2.53076 | 359 ft | 20 kts | 127° |
| 2026-05-06 13:11 | 49.01852 | 2.53259 | 354 ft | 17 kts | 89° |
| 2026-05-06 13:12 | 49.01863 | 2.53449 | 360 ft | 16 kts | 82° |
| 2026-05-06 13:12 | 49.01866 | 2.53478 | 359 ft | 5 kts | 83° |
| 2026-05-06 13:12 | 49.01849 | 2.53558 | 355 ft | 11 kts | 135° |
| 2026-05-06 13:12 | 49.01759 | 2.53581 | 356 ft | 15 kts | 179° |
| 2026-05-06 13:13 | 49.01641 | 2.53594 | 356 ft | 19 kts | 173° |
| 2026-05-06 13:13 | 49.01511 | 2.53609 | 362 ft | 19 kts | 180° |
| 2026-05-06 13:13 | 49.01376 | 2.53616 | 354 ft | 20 kts | 170° |
| 2026-05-06 13:13 | 49.01250 | 2.53684 | 358 ft | 19 kts | 151° |
| 2026-05-06 13:14 | 49.01175 | 2.53846 | 355 ft | 17 kts | 100° |
| 2026-05-06 13:14 | 49.01187 | 2.54011 | 357 ft | 15 kts | 69° |
| 2026-05-06 13:14 | 49.01281 | 2.54095 | 348 ft | 18 kts | 350° |
| 2026-05-06 13:14 | 49.01368 | 2.54023 | 358 ft | 12 kts | 332° |
| 2026-05-06 13:15 | 49.01447 | 2.53991 | 353 ft | 11 kts | 0° |
| 2026-05-06 13:15 | 49.01502 | 2.53985 | 353 ft | 7 kts | 328° |
| 2026-05-06 13:15 | 49.01509 | 2.53949 | 354 ft | 4 kts | 281° |
| 2026-05-06 13:15 | 49.01510 | 2.53943 | 354 ft | 1 kts | 279° |
| 2026-05-06 13:16 | 49.01509 | 2.53907 | 355 ft | 7 kts | 275° |
| 2026-05-06 13:16 | 49.01525 | 2.53845 | 356 ft | 1 kts | 297° |
| 2026-05-06 13:16 | 49.01531 | 2.53830 | 359 ft | 1 kts | 297° |
| 2026-05-06 13:16 | 49.01537 | 2.53809 | 356 ft | 1 kts | 294° |
| 2026-05-06 13:17 | 49.01539 | 2.53803 | 356 ft | 0 kts | 294° |